Colebrook, NH

5:45 AM EDT on October 26, 2014 (GMT -0400)
Diamond Pond | Change Station
CLOSE
Current Station
Personal Weather Station
Location: Stewartstown, NH
Elevation: 2240 ft
Nearby Weather Stations

Elev 2240 ft 44.95 °N, 71.32 °W | Updated 2 minutes ago

Overcast
Overcast
41.3 °F
Feels Like 41 °F
N
0.0
Wind Variable Wind from North
Gusts 12.0 mph

Today
High -- | Low -- °F
--% Chance of Precip.
Yesterday
High -- | Low -- °F
Precip. -- in
7:16 AM 5:43 PM
Waxing Crescent, 7% visible
Pressure 29.39 in
Visibility 6.0 miles
Clouds Mostly Cloudy 2500 ft
Mostly Cloudy 3300 ft
Windchill 41 °F
Dew Point 40 °F
Humidity 95%
Rainfall 0.05 in
Snow Depth Not available.
UV 0 out of 12
Pollen .20 out of 12
Air Quality Not available.
Flu Activity Sporadic
SPECI KBML 260917Z AUTO 00000KT 6SM BR BKN025 BKN033 04/04 A2939 RMK AO2 T00440044

More Conditions Fewer Conditions

Pressure 29.39 in
Visibility 6.0 miles
Clouds Mostly Cloudy 2500 ft
Mostly Cloudy 3300 ft
Windchill 41 °F
Dew Point 40 °F
Humidity 95%
Rainfall 0.05 in
Snow Depth Not available.
UV 0 out of 12
Pollen .20 out of 12
Air Quality Not available.
Flu Activity Sporadic
SPECI KBML 260917Z AUTO 00000KT 6SM BR BKN025 BKN033 04/04 A2939 RMK AO2 T00440044

More Conditions Fewer Conditions

10-Day Weather Forecast

Almanac

Astronomy

Oct. 26, 2014 Rise Set
Actual Time 7:16 AM EDT 5:43 PM EDT
Civil Twilight 6:45 AM EDT 6:13 PM EDT
Nautical Twilight 6:11 AM EDT 6:47 PM EDT
Astronomical Twilight 5:37 AM EDT 7:21 PM EDT
Moon 9:55 AM EDT 7:47 PM EDT
Length of Visible Light 11h 27m
Length of Day
10h 27m
Tomorrow will be 2m 53s shorter.
Waxing Crescent, 7% of the Moon is Illuminated
Today
Waxing Crescent
Oct 30
First Quarter
Nov 6
Full
Nov 14
Last Quarter
Nov 22
New

Today's Extremes

State Highs State Lows

Community

WunderPhotos

Upload Photos

1,765,132 photos uploaded!

Nearby

Air Quality

  Air Quality AQ Index Pollutant
Sunday Good
PM2.5
Sunday Good
OZONE
Monday Good
PM2.5
Monday Good
OZONE

Snow Depth

Station Depth Elevation
No new snow has been reported.

Earthquake Activity

City Distance Mag. Time & Date
No recent earthquake activity has been reported nearby.
Minimum magnitude displayed is 2.5.

Coastal Water Temperatures

Place Temperature
No Stations Reporting

Nearby Weather Stations